createdAt,value
2022-10-25T00:00:04.066Z,40.81
2022-10-25T00:01:04.116Z,45.88
2022-10-25T00:02:04.137Z,38.06
2022-10-25T00:03:04.037Z,43.85
2022-10-25T00:04:04.068Z,37.50
2022-10-25T00:05:04.049Z,44.36
2022-10-25T00:06:04.034Z,44.17
2022-10-25T00:07:04.005Z,46.46
2022-10-25T00:08:03.999Z,46.04
2022-10-25T00:09:04.017Z,50.36
2022-10-25T00:10:04.021Z,41.70
2022-10-25T00:11:03.978Z,43.51
2022-10-25T00:12:03.974Z,49.91
2022-10-25T00:13:03.967Z,54.67
2022-10-25T00:14:03.965Z,53.89
2022-10-25T00:15:03.981Z,55.39
2022-10-25T00:16:03.965Z,57.20
2022-10-25T00:17:03.931Z,43.29
2022-10-25T00:18:03.915Z,42.43
2022-10-25T00:19:04.170Z,38.94
2022-10-25T00:20:03.970Z,42.30
2022-10-25T00:21:03.894Z,48.12
2022-10-25T00:22:03.898Z,36.31
2022-10-25T00:23:03.889Z,35.75
2022-10-25T00:24:03.876Z,35.32
2022-10-25T00:25:03.913Z,35.25
2022-10-25T00:26:03.872Z,36.56
2022-10-25T00:27:03.889Z,37.70
2022-10-25T00:28:03.847Z,41.06
2022-10-25T00:29:03.830Z,41.95
2022-10-25T00:30:03.852Z,41.20
2022-10-25T00:31:03.828Z,37.85
2022-10-25T00:32:03.809Z,43.99
2022-10-25T00:33:03.802Z,44.81
2022-10-25T00:34:03.801Z,42.73
2022-10-25T00:35:03.816Z,55.47
2022-10-25T00:36:03.793Z,41.44
2022-10-25T00:37:03.774Z,39.69
2022-10-25T00:38:03.786Z,40.40
2022-10-25T00:39:03.775Z,37.75
2022-10-25T00:40:03.834Z,37.80
2022-10-25T00:41:03.742Z,44.03
2022-10-25T00:42:03.744Z,43.98
2022-10-25T00:43:03.727Z,39.73
2022-10-25T00:44:03.720Z,45.42
2022-10-25T00:45:03.755Z,47.51
2022-10-25T00:46:03.708Z,49.18
2022-10-25T00:47:03.708Z,49.41
2022-10-25T00:48:03.719Z,45.62
2022-10-25T00:49:03.679Z,47.47
2022-10-25T00:50:03.695Z,43.90
2022-10-25T00:51:03.661Z,44.04
2022-10-25T00:52:03.657Z,47.98
2022-10-25T00:53:03.651Z,41.11
2022-10-25T00:54:03.629Z,50.22
2022-10-25T00:55:03.676Z,47.28
2022-10-25T00:56:03.624Z,42.87
2022-10-25T00:57:03.657Z,43.15
2022-10-25T00:58:03.606Z,42.33
2022-10-25T00:59:03.595Z,37.85
2022-10-25T01:00:03.644Z,50.14
2022-10-25T01:01:03.623Z,50.46
2022-10-25T01:02:03.706Z,44.29
2022-10-25T01:03:03.569Z,50.25
2022-10-25T01:04:03.587Z,50.23
2022-10-25T01:05:03.549Z,45.63
2022-10-25T01:06:03.588Z,47.01
2022-10-25T01:07:03.550Z,40.46
2022-10-25T01:08:03.604Z,39.93
2022-10-25T01:09:03.530Z,47.23
2022-10-25T01:10:03.568Z,56.16
2022-10-25T01:11:03.606Z,46.52
2022-10-25T01:12:03.506Z,39.22
2022-10-25T01:13:03.611Z,37.72
2022-10-25T01:14:03.500Z,44.80
2022-10-25T01:15:03.505Z,39.67
2022-10-25T01:16:03.517Z,43.73
2022-10-25T01:17:03.458Z,43.03
2022-10-25T01:18:03.462Z,50.81
2022-10-25T01:19:03.441Z,44.01
2022-10-25T01:20:03.454Z,58.49
2022-10-25T01:21:03.425Z,47.75
2022-10-25T01:22:03.420Z,48.70
2022-10-25T01:23:03.458Z,43.80
2022-10-25T01:24:03.401Z,47.68
2022-10-25T01:25:03.413Z,50.99
2022-10-25T01:26:03.402Z,44.77
2022-10-25T01:27:03.401Z,42.00
2022-10-25T01:28:03.532Z,39.39
2022-10-25T01:29:03.414Z,50.97
2022-10-25T01:30:03.385Z,60.18
2022-10-25T01:31:03.357Z,45.38
2022-10-25T01:32:03.360Z,38.13
2022-10-25T01:33:03.361Z,47.62
2022-10-25T01:34:03.328Z,55.83
2022-10-25T01:35:03.369Z,43.44
2022-10-25T01:36:03.399Z,42.31
2022-10-25T01:37:03.303Z,44.32
2022-10-25T01:38:03.300Z,45.59
2022-10-25T01:39:03.288Z,46.50
2022-10-25T01:40:03.320Z,50.89
2022-10-25T01:41:03.274Z,42.73
2022-10-25T01:42:03.275Z,42.01
2022-10-25T01:43:03.263Z,41.52
2022-10-25T01:44:03.272Z,37.84
2022-10-25T01:45:03.457Z,42.76
2022-10-25T01:46:03.282Z,38.03
2022-10-25T01:47:03.244Z,39.91
2022-10-25T01:48:03.216Z,46.90
2022-10-25T01:49:03.222Z,44.11
2022-10-25T01:50:03.205Z,42.39
2022-10-25T01:51:03.226Z,42.75
2022-10-25T01:52:03.195Z,42.69
2022-10-25T01:53:03.197Z,38.94
2022-10-25T01:54:03.171Z,47.68
2022-10-25T01:55:03.166Z,52.85
2022-10-25T01:56:03.187Z,46.38
2022-10-25T01:57:03.157Z,43.89
2022-10-25T01:58:03.141Z,46.77
2022-10-25T01:59:03.134Z,46.39
2022-10-25T02:00:03.139Z,54.50
2022-10-25T02:01:03.275Z,44.10
2022-10-25T02:02:03.116Z,44.31
2022-10-25T02:03:03.103Z,45.92
2022-10-25T02:04:03.097Z,53.79
2022-10-25T02:05:03.088Z,46.44
2022-10-25T02:06:03.157Z,41.04
2022-10-25T02:07:03.073Z,47.90
2022-10-25T02:08:04.073Z,47.45
2022-10-25T02:09:03.058Z,38.12
2022-10-25T02:10:03.177Z,40.16
2022-10-25T02:11:03.082Z,49.85
2022-10-25T02:12:03.046Z,41.42
2022-10-25T02:13:03.033Z,40.80
2022-10-25T02:14:03.013Z,40.08
2022-10-25T02:15:03.019Z,40.50
2022-10-25T02:16:03.027Z,53.91
2022-10-25T02:17:03.016Z,47.87
2022-10-25T02:18:02.996Z,38.50
2022-10-25T02:19:02.980Z,43.52
2022-10-25T02:20:02.994Z,41.19
2022-10-25T02:21:02.991Z,48.89
2022-10-25T02:22:02.973Z,46.89
2022-10-25T02:23:03.023Z,40.56
2022-10-25T02:24:02.951Z,49.12
2022-10-25T02:25:02.937Z,53.22
2022-10-25T02:26:02.948Z,56.74
2022-10-25T02:27:02.942Z,47.87
2022-10-25T02:28:02.909Z,45.99
2022-10-25T02:29:02.896Z,44.81
2022-10-25T02:30:02.905Z,42.58
2022-10-25T02:31:02.931Z,48.94
2022-10-25T02:32:02.881Z,47.41
2022-10-25T02:33:02.869Z,57.06
2022-10-25T02:34:02.869Z,45.46
2022-10-25T02:35:02.901Z,39.81
2022-10-25T02:36:02.886Z,46.54
2022-10-25T02:37:02.831Z,47.84
2022-10-25T02:38:02.826Z,51.09
2022-10-25T02:39:02.830Z,48.56
2022-10-25T02:40:02.819Z,43.36
2022-10-25T02:41:02.879Z,51.17
2022-10-25T02:42:02.804Z,56.47
2022-10-25T02:43:02.801Z,51.93
2022-10-25T02:44:02.798Z,48.77
2022-10-25T02:45:02.783Z,40.40
2022-10-25T02:46:02.810Z,54.70
2022-10-25T02:47:02.763Z,55.56
2022-10-25T02:48:02.746Z,54.50
2022-10-25T02:49:02.752Z,53.95
2022-10-25T02:50:02.730Z,61.89
2022-10-25T02:51:02.755Z,55.36
2022-10-25T02:52:02.722Z,55.42
2022-10-25T02:53:02.703Z,53.80
2022-10-25T02:54:02.713Z,53.63
2022-10-25T02:55:02.695Z,53.35
2022-10-25T02:56:02.718Z,54.36
2022-10-25T02:57:02.679Z,59.39
2022-10-25T02:58:02.667Z,49.79
2022-10-25T02:59:02.667Z,45.19
2022-10-25T03:00:02.744Z,44.32
2022-10-25T03:01:02.759Z,49.44
2022-10-25T03:02:02.703Z,48.35
2022-10-25T03:03:02.627Z,48.93
2022-10-25T03:04:02.631Z,48.91
2022-10-25T03:05:02.639Z,57.31
2022-10-25T03:06:02.613Z,48.13
2022-10-25T03:07:02.641Z,46.77
2022-10-25T03:08:02.592Z,50.09
2022-10-25T03:09:02.587Z,53.48
2022-10-25T03:10:02.575Z,49.35
2022-10-25T03:11:02.571Z,52.56
2022-10-25T03:12:02.592Z,53.19
2022-10-25T03:13:02.557Z,52.42
2022-10-25T03:14:02.564Z,49.56
2022-10-25T03:15:02.549Z,48.37
2022-10-25T03:16:02.528Z,50.06
2022-10-25T03:17:02.555Z,48.36
2022-10-25T03:18:02.536Z,54.50
2022-10-25T03:19:02.522Z,51.34
2022-10-25T03:20:02.495Z,53.35
2022-10-25T03:21:02.494Z,50.62
2022-10-25T03:22:02.521Z,52.49
2022-10-25T03:23:02.473Z,52.68
2022-10-25T03:24:02.469Z,43.25
2022-10-25T03:25:02.573Z,50.02
2022-10-25T03:26:02.451Z,47.85
2022-10-25T03:27:02.481Z,54.73
2022-10-25T03:28:02.464Z,43.66
2022-10-25T03:29:02.434Z,55.50
2022-10-25T03:30:02.431Z,48.08
2022-10-25T03:31:02.416Z,43.03
2022-10-25T03:32:02.479Z,52.34
2022-10-25T03:33:02.422Z,55.65
2022-10-25T03:34:02.402Z,52.91
2022-10-25T03:35:02.385Z,50.32
2022-10-25T03:36:02.413Z,54.23
2022-10-25T03:37:02.466Z,48.91
2022-10-25T03:38:02.370Z,48.13
2022-10-25T03:39:02.379Z,56.02
2022-10-25T03:40:02.374Z,51.81
2022-10-25T03:41:02.341Z,56.04
2022-10-25T03:42:02.365Z,55.91
2022-10-25T03:43:02.343Z,50.37
2022-10-25T03:44:02.331Z,58.68
2022-10-25T03:45:02.312Z,51.00
2022-10-25T03:46:02.313Z,48.89
2022-10-25T03:47:02.321Z,50.83
2022-10-25T03:48:02.303Z,49.52
2022-10-25T03:49:02.368Z,58.96
2022-10-25T03:50:02.280Z,52.22
2022-10-25T03:51:02.264Z,54.42
2022-10-25T03:52:04.967Z,48.59
2022-10-25T03:53:02.317Z,56.09
2022-10-25T03:54:02.241Z,49.42
2022-10-25T03:55:02.236Z,52.11
2022-10-25T03:56:02.250Z,48.76
2022-10-25T03:57:02.283Z,47.40
2022-10-25T03:58:02.204Z,52.14
2022-10-25T03:59:02.224Z,54.03
2022-10-25T04:00:02.200Z,50.16
2022-10-25T04:01:02.274Z,49.73
2022-10-25T04:02:02.314Z,52.34
2022-10-25T04:03:02.734Z,55.26
2022-10-25T04:04:02.174Z,51.93
2022-10-25T04:05:02.154Z,50.84
2022-10-25T04:06:02.141Z,56.90
2022-10-25T04:07:02.165Z,56.38
2022-10-25T04:08:02.127Z,54.12
2022-10-25T04:09:02.188Z,54.43
2022-10-25T04:10:02.122Z,53.78
2022-10-25T04:11:02.095Z,51.59
2022-10-25T04:12:02.146Z,54.64
2022-10-25T04:13:02.090Z,52.97
2022-10-25T04:14:02.123Z,56.70
2022-10-25T04:15:02.079Z,52.79
2022-10-25T04:16:02.073Z,54.90
2022-10-25T04:17:02.081Z,55.93
2022-10-25T04:18:02.050Z,60.33
2022-10-25T04:19:02.107Z,53.43
2022-10-25T04:20:02.052Z,56.79
2022-10-25T04:21:02.039Z,53.47
2022-10-25T04:22:02.051Z,55.12
2022-10-25T04:23:02.014Z,54.54
2022-10-25T04:24:04.294Z,57.34
2022-10-25T04:25:03.056Z,49.76
2022-10-25T04:26:01.995Z,56.16
2022-10-25T04:27:02.069Z,51.68
2022-10-25T04:28:01.984Z,56.12
2022-10-25T04:29:01.966Z,54.72
2022-10-25T04:30:01.969Z,58.82
2022-10-25T04:31:01.952Z,53.57
2022-10-25T04:32:02.983Z,56.81
2022-10-25T04:33:01.933Z,56.30
2022-10-25T04:34:01.925Z,54.99
2022-10-25T04:35:01.915Z,55.55
2022-10-25T04:36:01.937Z,57.74
2022-10-25T04:37:01.931Z,56.62
2022-10-25T04:38:01.893Z,57.87
2022-10-25T04:39:01.901Z,54.20
2022-10-25T04:40:01.881Z,53.84
2022-10-25T04:41:01.891Z,57.29
2022-10-25T04:42:01.935Z,54.44
2022-10-25T04:43:01.885Z,57.79
2022-10-25T04:44:01.845Z,54.50
2022-10-25T04:45:01.839Z,53.76
2022-10-25T04:46:01.830Z,52.44
2022-10-25T04:47:01.820Z,58.87
2022-10-25T04:48:01.838Z,58.77
2022-10-25T04:49:01.810Z,55.12
2022-10-25T04:50:01.801Z,57.32
2022-10-25T04:51:01.793Z,57.53
2022-10-25T04:52:01.802Z,56.51
2022-10-25T04:53:01.806Z,56.57
2022-10-25T04:54:01.786Z,57.26
2022-10-25T04:55:01.762Z,55.12
2022-10-25T04:56:01.762Z,57.93
2022-10-25T04:57:01.888Z,54.18
2022-10-25T04:58:01.757Z,54.75
2022-10-25T04:59:01.737Z,53.97
2022-10-25T05:00:01.719Z,56.58
2022-10-25T05:01:01.839Z,56.64
2022-10-25T05:02:01.707Z,54.46
2022-10-25T05:03:01.786Z,60.07
2022-10-25T05:04:01.690Z,56.34
2022-10-25T05:05:03.391Z,55.58
2022-10-25T05:06:01.677Z,54.31
2022-10-25T05:07:01.712Z,57.36
2022-10-25T05:08:01.693Z,55.72
2022-10-25T05:09:01.659Z,56.22
2022-10-25T05:10:01.650Z,55.52
2022-10-25T05:11:01.644Z,56.74
2022-10-25T05:12:01.633Z,56.35
2022-10-25T05:13:01.657Z,50.04
2022-10-25T05:14:01.622Z,57.81
2022-10-25T05:15:01.625Z,56.91
2022-10-25T05:16:01.610Z,55.40
2022-10-25T05:17:01.617Z,57.57
2022-10-25T05:18:01.660Z,55.02
2022-10-25T05:19:01.581Z,54.56
2022-10-25T05:20:01.579Z,55.06
2022-10-25T05:21:01.566Z,54.02
2022-10-25T05:22:01.559Z,59.89
2022-10-25T05:23:02.620Z,59.20
2022-10-25T05:24:02.418Z,57.24
2022-10-25T05:25:01.538Z,55.22
2022-10-25T05:26:01.540Z,57.62
2022-10-25T05:27:01.528Z,52.40
2022-10-25T05:28:01.584Z,55.87
2022-10-25T05:29:01.922Z,55.95
2022-10-25T05:30:01.496Z,58.49
2022-10-25T05:31:01.557Z,58.19
2022-10-25T05:32:01.478Z,60.28
2022-10-25T05:33:04.107Z,58.36
2022-10-25T05:34:01.494Z,59.31
2022-10-25T05:35:01.464Z,54.71
2022-10-25T05:36:01.449Z,56.63
2022-10-25T05:37:01.447Z,54.04
2022-10-25T05:38:01.435Z,54.10
2022-10-25T05:39:01.464Z,57.22
2022-10-25T05:40:01.422Z,57.76
2022-10-25T05:41:01.428Z,56.49
2022-10-25T05:42:01.404Z,56.60
2022-10-25T05:43:01.395Z,58.14
2022-10-25T05:44:01.423Z,54.59
2022-10-25T05:45:01.371Z,57.41
2022-10-25T05:46:01.392Z,56.67
2022-10-25T05:47:01.435Z,59.95
2022-10-25T05:48:01.361Z,52.64
2022-10-25T05:49:01.377Z,54.70
2022-10-25T05:50:01.347Z,54.43
2022-10-25T05:51:14.262Z,56.90
2022-10-25T05:52:03.356Z,56.53
2022-10-25T05:53:01.314Z,57.33
2022-10-25T05:54:02.205Z,57.05
2022-10-25T05:55:01.327Z,56.21
2022-10-25T05:56:01.296Z,53.46
2022-10-25T05:57:01.315Z,56.59
2022-10-25T05:58:01.266Z,57.53
2022-10-25T05:59:01.293Z,55.07
2022-10-25T06:00:01.284Z,54.76
2022-10-25T06:01:02.417Z,55.32
2022-10-25T06:02:01.322Z,55.87
2022-10-25T06:03:01.234Z,51.51
2022-10-25T06:04:01.255Z,56.11
2022-10-25T06:05:01.222Z,50.03
2022-10-25T06:06:01.258Z,53.73
2022-10-25T06:07:01.207Z,54.82
2022-10-25T06:08:01.207Z,55.17
2022-10-25T06:09:01.226Z,55.60
2022-10-25T06:10:01.175Z,54.82
2022-10-25T06:11:01.175Z,50.19
2022-10-25T06:12:02.214Z,53.62
2022-10-25T06:13:01.162Z,55.96
2022-10-25T06:14:01.182Z,57.98
2022-10-25T06:15:01.140Z,53.95
2022-10-25T06:16:01.169Z,58.41
2022-10-25T06:17:01.131Z,57.64
2022-10-25T06:18:01.116Z,52.56
2022-10-25T06:19:01.140Z,56.80
2022-10-25T06:20:01.096Z,57.78
2022-10-25T06:21:01.089Z,57.70
2022-10-25T06:22:01.082Z,53.22
2022-10-25T06:23:01.074Z,57.20
2022-10-25T06:24:01.097Z,51.90
2022-10-25T06:25:01.053Z,53.16
2022-10-25T06:26:01.054Z,55.41
2022-10-25T06:27:01.038Z,55.80
2022-10-25T06:28:01.033Z,55.28
2022-10-25T06:29:01.052Z,54.74
2022-10-25T06:30:01.024Z,54.41
2022-10-25T06:31:01.011Z,54.35
2022-10-25T06:32:01.000Z,56.45
2022-10-25T06:33:00.997Z,55.53
2022-10-25T06:34:01.013Z,56.16
2022-10-25T06:35:00.981Z,55.38
2022-10-25T06:36:00.968Z,55.79
2022-10-25T06:37:00.964Z,57.36
2022-10-25T06:38:00.976Z,55.92
2022-10-25T06:39:05.257Z,56.92
2022-10-25T06:40:02.966Z,53.76
2022-10-25T06:41:00.927Z,52.91
2022-10-25T06:42:00.916Z,54.28
2022-10-25T06:43:00.919Z,56.81
2022-10-25T06:44:06.178Z,54.82
2022-10-25T06:45:02.930Z,52.76
2022-10-25T06:46:01.855Z,54.26
2022-10-25T06:47:17.762Z,51.98
2022-10-25T06:48:02.883Z,59.22
2022-10-25T06:49:00.876Z,55.47
2022-10-25T06:50:00.991Z,55.04
2022-10-25T06:51:00.858Z,50.79
2022-10-25T06:52:00.867Z,51.52
2022-10-25T06:53:00.841Z,57.22
2022-10-25T06:54:00.831Z,52.59
2022-10-25T06:55:00.852Z,54.95
2022-10-25T06:56:04.527Z,55.08
2022-10-25T06:57:01.811Z,59.98
2022-10-25T06:58:00.800Z,53.79
2022-10-25T06:59:00.801Z,55.23
2022-10-25T07:01:00.829Z,52.41
2022-10-25T07:02:00.884Z,52.59
2022-10-25T07:03:00.760Z,55.24
2022-10-25T07:04:00.756Z,52.31
2022-10-25T07:05:00.830Z,55.46
2022-10-25T07:06:00.734Z,56.39
2022-10-25T07:07:00.726Z,56.25
2022-10-25T07:08:00.733Z,57.73
2022-10-25T07:09:00.741Z,56.88
2022-10-25T07:10:00.740Z,56.29
2022-10-25T07:11:00.709Z,57.91
2022-10-25T07:12:00.694Z,58.17
2022-10-25T07:13:00.685Z,54.17
2022-10-25T07:14:00.673Z,57.37
2022-10-25T07:15:00.701Z,56.35
2022-10-25T07:16:00.660Z,54.29
2022-10-25T07:17:00.658Z,54.65
2022-10-25T07:18:00.653Z,51.94
2022-10-25T07:19:00.642Z,54.74
2022-10-25T07:20:00.671Z,56.05
2022-10-25T07:21:00.625Z,53.71
2022-10-25T07:22:00.619Z,55.96
2022-10-25T07:23:01.203Z,54.41
2022-10-25T07:24:00.604Z,55.13
2022-10-25T07:25:00.654Z,56.32
2022-10-25T07:26:00.601Z,53.67
2022-10-25T07:27:00.580Z,56.72
2022-10-25T07:28:00.577Z,56.00
2022-10-25T07:29:00.562Z,45.94
2022-10-25T07:30:00.586Z,55.37
2022-10-25T07:31:00.542Z,55.59
2022-10-25T07:32:01.538Z,56.27
2022-10-25T07:33:00.528Z,53.99
2022-10-25T07:34:00.578Z,59.84
2022-10-25T07:35:00.681Z,54.42
2022-10-25T07:36:11.083Z,55.16
2022-10-25T07:37:02.526Z,57.75
2022-10-25T07:38:00.490Z,51.05
2022-10-25T07:39:00.507Z,56.75
2022-10-25T07:40:00.518Z,54.09
2022-10-25T07:41:00.465Z,54.84
2022-10-25T07:42:00.466Z,55.64
2022-10-25T07:43:00.481Z,57.74
2022-10-25T07:44:00.481Z,56.18
2022-10-25T07:45:00.492Z,56.08
2022-10-25T07:46:00.430Z,55.04
2022-10-25T07:47:00.440Z,56.69
2022-10-25T07:48:00.413Z,56.84
2022-10-25T07:49:00.414Z,55.55
2022-10-25T07:50:00.446Z,57.37
2022-10-25T07:51:00.391Z,53.68
2022-10-25T07:52:00.387Z,56.78
2022-10-25T07:53:00.382Z,56.39
2022-10-25T07:54:00.360Z,55.48
2022-10-25T07:55:00.386Z,55.58
2022-10-25T07:56:00.380Z,56.93
2022-10-25T07:57:00.353Z,53.97
2022-10-25T07:58:00.353Z,49.50
2022-10-25T07:59:00.326Z,57.62
2022-10-25T08:00:00.320Z,56.14
2022-10-25T08:01:00.361Z,57.48
2022-10-25T08:02:00.314Z,53.49
2022-10-25T08:03:00.400Z,54.17
2022-10-25T08:04:00.299Z,58.91
2022-10-25T08:05:00.295Z,55.52
2022-10-25T08:06:00.434Z,59.36
2022-10-25T08:07:00.285Z,54.61
2022-10-25T08:08:00.260Z,57.48
2022-10-25T08:09:05.578Z,55.28
2022-10-25T08:10:01.275Z,58.34
2022-10-25T08:11:00.291Z,55.93
2022-10-25T08:12:00.266Z,57.55
2022-10-25T08:13:00.238Z,56.82
2022-10-25T08:14:00.202Z,56.50
2022-10-25T08:15:01.225Z,54.87
2022-10-25T08:16:00.231Z,51.74
2022-10-25T08:17:00.191Z,51.48
2022-10-25T08:18:00.177Z,55.68
2022-10-25T08:19:00.183Z,55.03
2022-10-25T08:20:00.200Z,54.74
2022-10-25T08:21:03.052Z,58.59
2022-10-25T08:22:01.159Z,54.50
2022-10-25T08:23:00.154Z,57.66
2022-10-25T08:24:00.139Z,54.42
2022-10-25T08:25:00.184Z,55.75
2022-10-25T08:26:00.144Z,57.79
2022-10-25T08:27:00.122Z,54.80
2022-10-25T08:28:00.107Z,54.16
2022-10-25T08:29:00.257Z,49.65
2022-10-25T08:30:00.112Z,52.85
2022-10-25T08:31:00.138Z,56.61
2022-10-25T08:32:00.102Z,57.26
2022-10-25T08:33:00.103Z,55.57
2022-10-25T08:34:00.165Z,53.85
2022-10-25T08:35:00.049Z,56.58
2022-10-25T08:36:00.091Z,50.86
2022-10-25T08:37:00.049Z,54.53
2022-10-25T08:38:00.037Z,56.82
2022-10-25T08:39:00.037Z,57.52
2022-10-25T08:40:00.016Z,49.47
2022-10-25T08:41:00.087Z,54.23
2022-10-25T08:42:00.012Z,52.58
2022-10-25T08:43:00.003Z,56.98
2022-10-25T08:45:00.050Z,54.89
2022-10-25T08:46:00.006Z,53.99
2022-10-25T08:47:00.010Z,56.24
2022-10-25T08:47:59.952Z,52.24
2022-10-25T08:48:59.953Z,49.11
2022-10-25T08:49:59.939Z,60.09
2022-10-25T08:50:59.962Z,54.88
2022-10-25T08:51:59.931Z,56.60
2022-10-25T08:52:59.920Z,54.16
2022-10-25T08:53:59.968Z,55.93
2022-10-25T08:55:03.161Z,54.30
2022-10-25T08:56:17.477Z,46.25
2022-10-25T08:57:15.031Z,54.46
2022-10-25T08:58:01.895Z,56.61
2022-10-25T08:58:59.873Z,58.21
2022-10-25T08:59:59.863Z,55.39
2022-10-25T09:00:59.918Z,52.80
2022-10-25T09:01:59.992Z,52.88
2022-10-25T09:02:59.854Z,61.23
2022-10-25T09:03:59.829Z,52.13
2022-10-25T09:04:59.831Z,55.38
2022-10-25T09:05:59.870Z,55.43
2022-10-25T09:07:00.848Z,56.37
2022-10-25T09:07:59.798Z,57.81
2022-10-25T09:08:59.812Z,54.90
2022-10-25T09:09:59.782Z,55.04
2022-10-25T09:10:59.945Z,51.03
2022-10-25T09:11:59.795Z,54.95
2022-10-25T09:12:59.798Z,55.46
2022-10-25T09:14:00.812Z,60.31
2022-10-25T09:14:59.835Z,49.32
2022-10-25T09:16:01.794Z,54.28
2022-10-25T09:17:01.425Z,52.31
2022-10-25T09:18:02.393Z,53.10
2022-10-25T09:18:59.715Z,58.36
2022-10-25T09:19:59.708Z,55.18
2022-10-25T09:20:59.712Z,54.73
2022-10-25T09:21:59.720Z,55.91
2022-10-25T09:22:59.691Z,55.47
2022-10-25T09:23:59.677Z,51.71
2022-10-25T09:24:59.669Z,53.87
2022-10-25T09:25:59.690Z,57.23
2022-10-25T09:26:59.655Z,54.44
2022-10-25T09:27:59.647Z,53.95
2022-10-25T09:28:59.682Z,50.94
2022-10-25T09:30:02.577Z,54.07
2022-10-25T09:31:00.649Z,56.20
2022-10-25T09:31:59.609Z,51.80
2022-10-25T09:32:59.598Z,53.50
2022-10-25T09:34:03.086Z,54.66
2022-10-25T09:34:59.590Z,54.60
2022-10-25T09:35:59.613Z,54.48
2022-10-25T09:36:59.574Z,59.88
2022-10-25T09:37:59.569Z,56.03
2022-10-25T09:38:59.562Z,54.80
2022-10-25T09:39:59.553Z,56.86
2022-10-25T09:40:59.556Z,50.35
2022-10-25T09:41:59.564Z,46.94
2022-10-25T09:42:59.582Z,56.28
2022-10-25T09:43:59.531Z,57.54
2022-10-25T09:44:59.531Z,55.19
2022-10-25T09:45:59.517Z,54.70
2022-10-25T09:46:59.529Z,52.79
2022-10-25T09:47:59.513Z,54.16
2022-10-25T09:48:59.494Z,52.80
2022-10-25T09:49:59.487Z,52.90
2022-10-25T09:50:59.474Z,52.30
2022-10-25T09:51:59.494Z,57.77
2022-10-25T09:53:59.457Z,52.01
2022-10-25T09:54:59.449Z,51.91
2022-10-25T09:55:59.455Z,58.24
2022-10-25T09:56:59.459Z,54.80
2022-10-25T09:57:59.430Z,54.60
2022-10-25T09:58:59.417Z,56.25
2022-10-25T09:59:59.407Z,54.49
2022-10-25T10:00:59.402Z,57.26
2022-10-25T10:01:59.518Z,57.69
2022-10-25T10:02:59.439Z,53.33
2022-10-25T10:04:00.084Z,53.17
2022-10-25T10:05:00.383Z,53.91
2022-10-25T10:05:59.368Z,56.53
2022-10-25T10:06:59.389Z,55.59
2022-10-25T10:07:59.354Z,55.78
2022-10-25T10:08:59.341Z,53.86
2022-10-25T10:09:59.344Z,56.05
2022-10-25T10:10:59.331Z,52.77
2022-10-25T10:11:59.368Z,52.32
2022-10-25T10:14:00.311Z,56.97
2022-10-25T10:14:59.313Z,54.82
2022-10-25T10:15:59.294Z,57.72
2022-10-25T10:16:59.317Z,50.92
2022-10-25T10:17:59.287Z,55.02
2022-10-25T10:18:59.269Z,53.72
2022-10-25T10:19:59.275Z,55.65
2022-10-25T10:20:59.257Z,56.36
2022-10-25T10:21:59.296Z,55.30
2022-10-25T10:22:59.240Z,55.29
2022-10-25T10:23:59.244Z,54.13
2022-10-25T10:24:59.234Z,57.25
2022-10-25T10:25:59.221Z,55.23
2022-10-25T10:26:59.262Z,49.25
2022-10-25T10:27:59.213Z,55.45
2022-10-25T10:28:59.201Z,53.76
2022-10-25T10:29:59.189Z,58.37
2022-10-25T10:30:59.187Z,51.00
2022-10-25T10:31:59.193Z,54.81
2022-10-25T10:32:59.185Z,53.76
2022-10-25T10:33:59.156Z,53.36
2022-10-25T10:34:59.151Z,53.76
2022-10-25T10:35:59.144Z,54.54
2022-10-25T10:36:59.173Z,56.20
2022-10-25T10:37:59.133Z,54.50
2022-10-25T10:38:59.127Z,53.69
2022-10-25T10:39:59.110Z,52.90
2022-10-25T10:40:59.110Z,61.36
2022-10-25T10:41:59.153Z,56.44
2022-10-25T10:42:59.318Z,53.37
2022-10-25T10:43:59.085Z,55.76
2022-10-25T10:44:59.080Z,55.51
2022-10-25T10:45:59.083Z,52.35
2022-10-25T10:46:59.102Z,52.71
2022-10-25T10:47:59.052Z,52.47
2022-10-25T10:48:59.071Z,54.40
2022-10-25T10:49:59.040Z,56.22
2022-10-25T10:50:59.045Z,54.29
2022-10-25T10:51:59.152Z,54.48
2022-10-25T10:53:00.146Z,55.83
2022-10-25T10:53:59.013Z,56.40
2022-10-25T10:54:59.006Z,62.21
2022-10-25T10:55:59.001Z,55.25
2022-10-25T10:56:59.034Z,49.87
2022-10-25T10:57:59.000Z,54.66
2022-10-25T10:58:58.985Z,54.37
2022-10-25T10:59:58.989Z,55.33
2022-10-25T11:00:58.962Z,51.31
2022-10-25T11:01:59.064Z,55.57
2022-10-25T11:02:58.965Z,55.81
2022-10-25T11:04:00.790Z,54.60
2022-10-25T11:04:58.927Z,55.59
2022-10-25T11:05:58.943Z,54.57
2022-10-25T11:06:58.918Z,53.95
2022-10-25T11:07:58.922Z,54.73
2022-10-25T11:08:58.895Z,53.41
2022-10-25T11:09:58.917Z,56.40
2022-10-25T11:10:58.885Z,53.38
2022-10-25T11:11:58.859Z,51.30
2022-10-25T11:12:59.890Z,57.87
2022-10-25T11:13:58.861Z,56.76
2022-10-25T11:14:58.874Z,55.01
2022-10-25T11:15:58.837Z,52.02
2022-10-25T11:16:58.834Z,57.31
2022-10-25T11:17:58.870Z,53.20
2022-10-25T11:18:58.811Z,55.14
2022-10-25T11:19:58.806Z,54.96
2022-10-25T11:20:58.896Z,54.59
2022-10-25T11:21:58.875Z,57.14
2022-10-25T11:23:01.286Z,55.60
2022-10-25T11:23:59.775Z,55.72
2022-10-25T11:24:58.765Z,54.75
2022-10-25T11:25:58.771Z,56.61
2022-10-25T11:26:58.761Z,54.14
2022-10-25T11:27:58.784Z,53.29
2022-10-25T11:28:58.742Z,55.31
2022-10-25T11:29:58.731Z,54.97
2022-10-25T11:30:58.728Z,55.43
2022-10-25T11:31:58.724Z,55.67
2022-10-25T11:32:58.739Z,53.71
2022-10-25T11:33:58.698Z,55.91
2022-10-25T11:34:58.698Z,56.10
2022-10-25T11:35:58.687Z,54.37
2022-10-25T11:36:58.676Z,58.62
2022-10-25T11:37:58.779Z,52.43
2022-10-25T11:38:58.652Z,55.40
2022-10-25T11:39:58.654Z,56.07
2022-10-25T11:40:58.646Z,59.49
2022-10-25T11:41:58.634Z,55.74
2022-10-25T11:42:58.651Z,53.43
2022-10-25T11:43:58.621Z,53.46
2022-10-25T11:44:58.612Z,59.16
2022-10-25T11:45:58.605Z,58.91
2022-10-25T11:46:58.631Z,55.56
2022-10-25T11:47:58.611Z,58.31
2022-10-25T11:48:59.589Z,54.08
2022-10-25T11:49:58.580Z,55.90
2022-10-25T11:50:58.569Z,56.01
2022-10-25T11:51:58.556Z,54.28
2022-10-25T11:52:58.833Z,56.84
2022-10-25T11:53:58.618Z,59.36
2022-10-25T11:54:58.537Z,55.95
2022-10-25T11:55:58.532Z,57.42
2022-10-25T11:56:58.521Z,53.92
2022-10-25T11:57:58.540Z,54.17
2022-10-25T11:58:58.505Z,55.68
2022-10-25T11:59:58.490Z,56.04
2022-10-25T12:00:59.514Z,56.58
2022-10-25T12:01:58.487Z,56.39
2022-10-25T12:02:58.569Z,59.54
2022-10-25T12:03:58.471Z,52.11
2022-10-25T12:04:58.475Z,51.33
2022-10-25T12:05:58.455Z,52.85
2022-10-25T12:06:59.414Z,56.79
2022-10-25T12:07:58.467Z,55.81
2022-10-25T12:08:58.458Z,54.81
2022-10-25T12:09:58.511Z,54.46
2022-10-25T12:10:58.424Z,56.25
2022-10-25T12:11:58.419Z,57.42
2022-10-25T12:12:58.447Z,53.29
2022-10-25T12:13:58.400Z,54.34
2022-10-25T12:14:58.396Z,56.00
2022-10-25T12:15:58.389Z,58.88
2022-10-25T12:16:58.387Z,56.00
2022-10-25T12:17:58.398Z,53.99
2022-10-25T12:18:58.444Z,55.89
2022-10-25T12:19:58.349Z,57.38
2022-10-25T12:20:58.349Z,55.18
2022-10-25T12:22:01.566Z,55.57
2022-10-25T12:22:58.332Z,58.05
2022-10-25T12:23:58.366Z,54.37
2022-10-25T12:24:58.318Z,59.72
2022-10-25T12:25:58.376Z,57.54
2022-10-25T12:26:58.295Z,53.34
2022-10-25T12:27:58.291Z,48.07
2022-10-25T12:28:58.302Z,54.13
2022-10-25T12:29:58.274Z,54.95
2022-10-25T12:30:58.266Z,56.79
2022-10-25T12:31:58.247Z,55.93
2022-10-25T12:32:58.266Z,54.22
2022-10-25T12:33:58.251Z,54.08
2022-10-25T12:34:58.226Z,55.57
2022-10-25T12:35:58.224Z,58.09
2022-10-25T12:36:58.234Z,56.82
2022-10-25T12:37:59.127Z,50.51
2022-10-25T12:38:58.204Z,56.35
2022-10-25T12:39:58.197Z,58.70
2022-10-25T12:40:58.182Z,60.73
2022-10-25T12:41:58.253Z,57.10
2022-10-25T12:42:58.190Z,63.41
2022-10-25T12:43:58.154Z,55.84
2022-10-25T12:44:58.154Z,60.82
2022-10-25T12:45:58.599Z,55.94
2022-10-25T12:46:58.129Z,57.47
2022-10-25T12:47:58.160Z,59.22
2022-10-25T12:48:58.112Z,57.64
2022-10-25T12:49:58.107Z,54.25
2022-10-25T12:50:58.104Z,57.36
2022-10-25T12:51:58.088Z,59.15
2022-10-25T12:52:58.081Z,58.24
2022-10-25T12:53:58.109Z,58.11
2022-10-25T12:54:58.068Z,55.61
2022-10-25T12:55:58.064Z,56.65